Bonita Beach, Florida
Current Conditions -  °F | °C
As of 12:53 AM on Sunday 23 Nov 2014 (Local Time) from KRSW Reporting Station
Overcast Overcast  
Wind Chill: 71°   Ceiling: 600
Heat Index: 71°   Visibility: 9mi
Dew Point: 70°   Wind: 7mph
Humidity: 96%   Direction: 100°E
Pressure: 30.04"   Gusts: NA
Location:  26.3649°N, 81.8304°W
Report Text: KRSW 230553Z AUTO 10006KT 9SM BKN006 OVC016 22/21 A3004 RMK AO2 SLP169 60000 T02170211 10233 20217 56016
Loading
Personal Weather Stations






























Interactive Weather Map New forecast layout! Learn more

10-Day Weather Forecast

Advertisements
Track Severe Weather on mobile